sensor_id;sensor_type;location;lat;lon;timestamp;temperature;humidity
13049;DHT22;6591;51.446;5.404;2022-09-09T00:00:36;15.50;99.90
13049;DHT22;6591;51.446;5.404;2022-09-09T00:03:30;15.60;99.90
13049;DHT22;6591;51.446;5.404;2022-09-09T00:06:30;15.40;99.90
13049;DHT22;6591;51.446;5.404;2022-09-09T00:09:22;15.40;99.90
13049;DHT22;6591;51.446;5.404;2022-09-09T00:12:02;17.20;99.90
13049;DHT22;6591;51.446;5.404;2022-09-09T00:15:18;15.40;99.90
13049;DHT22;6591;51.446;5.404;2022-09-09T00:18:07;17.00;99.90
13049;DHT22;6591;51.446;5.404;2022-09-09T00:20:52;15.40;99.90
13049;DHT22;6591;51.446;5.404;2022-09-09T00:23:32;15.40;99.90
13049;DHT22;6591;51.446;5.404;2022-09-09T00:32:21;15.30;99.90
13049;DHT22;6591;51.446;5.404;2022-09-09T00:35:23;17.50;99.90
13049;DHT22;6591;51.446;5.404;2022-09-09T00:37:52;15.30;99.90
13049;DHT22;6591;51.446;5.404;2022-09-09T00:40:29;17.70;99.90
13049;DHT22;6591;51.446;5.404;2022-09-09T00:43:27;15.30;99.90
13049;DHT22;6591;51.446;5.404;2022-09-09T00:46:33;16.80;99.90
13049;DHT22;6591;51.446;5.404;2022-09-09T00:49:46;15.30;99.90
13049;DHT22;6591;51.446;5.404;2022-09-09T00:55:48;15.20;99.90
13049;DHT22;6591;51.446;5.404;2022-09-09T00:58:24;15.20;99.90
13049;DHT22;6591;51.446;5.404;2022-09-09T01:01:13;15.10;99.90
13049;DHT22;6591;51.446;5.404;2022-09-09T01:03:53;15.20;99.90
13049;DHT22;6591;51.446;5.404;2022-09-09T01:06:30;17.10;99.90
13049;DHT22;6591;51.446;5.404;2022-09-09T01:12:40;15.20;99.90
13049;DHT22;6591;51.446;5.404;2022-09-09T01:15:17;15.20;99.90
13049;DHT22;6591;51.446;5.404;2022-09-09T01:21:00;15.10;99.90
13049;DHT22;6591;51.446;5.404;2022-09-09T01:26:58;15.10;99.90
13049;DHT22;6591;51.446;5.404;2022-09-09T01:29:28;16.70;99.90
13049;DHT22;6591;51.446;5.404;2022-09-09T01:32:02;15.10;99.90
13049;DHT22;6591;51.446;5.404;2022-09-09T01:34:50;15.30;99.90
13049;DHT22;6591;51.446;5.404;2022-09-09T01:37:19;15.50;99.90
13049;DHT22;6591;51.446;5.404;2022-09-09T01:39:46;16.40;99.90
13049;DHT22;6591;51.446;5.404;2022-09-09T01:42:16;15.90;99.90
13049;DHT22;6591;51.446;5.404;2022-09-09T01:44:44;15.00;99.90
13049;DHT22;6591;51.446;5.404;2022-09-09T01:47:12;15.00;99.90
13049;DHT22;6591;51.446;5.404;2022-09-09T01:50:14;15.80;99.90
13049;DHT22;6591;51.446;5.404;2022-09-09T01:52:50;16.10;99.90
13049;DHT22;6591;51.446;5.404;2022-09-09T01:55:36;15.00;99.90
13049;DHT22;6591;51.446;5.404;2022-09-09T02:01:15;15.00;99.90
13049;DHT22;6591;51.446;5.404;2022-09-09T02:03:52;14.90;99.90
13049;DHT22;6591;51.446;5.404;2022-09-09T02:06:33;14.90;99.90
13049;DHT22;6591;51.446;5.404;2022-09-09T02:09:23;14.90;99.90
13049;DHT22;6591;51.446;5.404;2022-09-09T02:12:02;17.30;99.90
13049;DHT22;6591;51.446;5.404;2022-09-09T02:14:51;15.80;99.90
13049;DHT22;6591;51.446;5.404;2022-09-09T02:17:35;15.30;99.90
13049;DHT22;6591;51.446;5.404;2022-09-09T02:20:12;14.90;99.90
13049;DHT22;6591;51.446;5.404;2022-09-09T02:22:50;14.80;99.90
13049;DHT22;6591;51.446;5.404;2022-09-09T02:25:23;14.80;99.90
13049;DHT22;6591;51.446;5.404;2022-09-09T02:27:57;14.80;99.90
13049;DHT22;6591;51.446;5.404;2022-09-09T02:30:29;15.90;99.90
13049;DHT22;6591;51.446;5.404;2022-09-09T02:33:03;14.80;99.90
13049;DHT22;6591;51.446;5.404;2022-09-09T02:35:51;14.80;99.90
13049;DHT22;6591;51.446;5.404;2022-09-09T02:38:26;15.70;99.90
13049;DHT22;6591;51.446;5.404;2022-09-09T02:41:02;16.90;99.90
13049;DHT22;6591;51.446;5.404;2022-09-09T02:43:32;14.70;99.90
13049;DHT22;6591;51.446;5.404;2022-09-09T02:49:06;16.10;99.90
13049;DHT22;6591;51.446;5.404;2022-09-09T02:51:53;17.00;99.90
13049;DHT22;6591;51.446;5.404;2022-09-09T02:54:34;16.20;99.90
13049;DHT22;6591;51.446;5.404;2022-09-09T02:57:16;14.70;99.90
13049;DHT22;6591;51.446;5.404;2022-09-09T02:59:49;14.70;99.90
13049;DHT22;6591;51.446;5.404;2022-09-09T03:02:18;16.50;99.90
13049;DHT22;6591;51.446;5.404;2022-09-09T03:04:52;16.90;99.90
13049;DHT22;6591;51.446;5.404;2022-09-09T03:07:20;14.80;99.90
13049;DHT22;6591;51.446;5.404;2022-09-09T03:09:50;14.70;99.90
13049;DHT22;6591;51.446;5.404;2022-09-09T03:12:17;15.10;99.90
13049;DHT22;6591;51.446;5.404;2022-09-09T03:14:44;16.80;99.90
13049;DHT22;6591;51.446;5.404;2022-09-09T03:17:13;16.20;99.90
13049;DHT22;6591;51.446;5.404;2022-09-09T03:19:48;14.90;99.90
13049;DHT22;6591;51.446;5.404;2022-09-09T03:22:16;14.90;99.90
13049;DHT22;6591;51.446;5.404;2022-09-09T03:24:44;14.50;99.90
13049;DHT22;6591;51.446;5.404;2022-09-09T03:27:13;15.00;99.90
13049;DHT22;6591;51.446;5.404;2022-09-09T03:29:44;16.80;99.90
13049;DHT22;6591;51.446;5.404;2022-09-09T03:32:18;15.00;99.90
13049;DHT22;6591;51.446;5.404;2022-09-09T03:34:49;15.20;99.90
13049;DHT22;6591;51.446;5.404;2022-09-09T03:37:17;17.30;99.90
13049;DHT22;6591;51.446;5.404;2022-09-09T03:39:48;15.00;99.90
13049;DHT22;6591;51.446;5.404;2022-09-09T03:42:16;15.00;99.90
13049;DHT22;6591;51.446;5.404;2022-09-09T03:44:47;16.70;99.90
13049;DHT22;6591;51.446;5.404;2022-09-09T03:47:19;15.20;99.90
13049;DHT22;6591;51.446;5.404;2022-09-09T03:49:50;17.50;99.90
13049;DHT22;6591;51.446;5.404;2022-09-09T03:52:17;16.40;99.90
13049;DHT22;6591;51.446;5.404;2022-09-09T03:54:50;15.10;99.90
13049;DHT22;6591;51.446;5.404;2022-09-09T03:57:17;17.10;99.90
13049;DHT22;6591;51.446;5.404;2022-09-09T03:59:44;15.10;99.90
13049;DHT22;6591;51.446;5.404;2022-09-09T04:02:11;15.20;99.90
13049;DHT22;6591;51.446;5.404;2022-09-09T04:04:39;16.30;99.90
13049;DHT22;6591;51.446;5.404;2022-09-09T04:07:06;15.20;99.90
13049;DHT22;6591;51.446;5.404;2022-09-09T04:09:34;17.40;99.90
13049;DHT22;6591;51.446;5.404;2022-09-09T04:12:01;15.20;99.90
13049;DHT22;6591;51.446;5.404;2022-09-09T04:14:30;15.20;99.90
13049;DHT22;6591;51.446;5.404;2022-09-09T04:16:58;18.00;99.90
13049;DHT22;6591;51.446;5.404;2022-09-09T04:19:26;15.30;99.90
13049;DHT22;6591;51.446;5.404;2022-09-09T04:21:53;15.30;99.90
13049;DHT22;6591;51.446;5.404;2022-09-09T04:24:22;17.10;99.90
13049;DHT22;6591;51.446;5.404;2022-09-09T04:26:49;15.40;99.90
13049;DHT22;6591;51.446;5.404;2022-09-09T04:29:16;15.40;99.90
13049;DHT22;6591;51.446;5.404;2022-09-09T04:31:43;15.40;99.90
13049;DHT22;6591;51.446;5.404;2022-09-09T04:34:12;16.40;99.90
13049;DHT22;6591;51.446;5.404;2022-09-09T04:36:39;15.50;99.90
13049;DHT22;6591;51.446;5.404;2022-09-09T04:39:08;15.50;99.90
13049;DHT22;6591;51.446;5.404;2022-09-09T04:41:35;15.50;99.90
13049;DHT22;6591;51.446;5.404;2022-09-09T04:44:05;13.80;99.90
13049;DHT22;6591;51.446;5.404;2022-09-09T04:46:32;15.50;99.90
13049;DHT22;6591;51.446;5.404;2022-09-09T04:49:00;15.40;99.90
13049;DHT22;6591;51.446;5.404;2022-09-09T04:51:30;15.50;99.90
13049;DHT22;6591;51.446;5.404;2022-09-09T04:53:58;15.50;99.90
13049;DHT22;6591;51.446;5.404;2022-09-09T04:56:25;16.90;99.90
13049;DHT22;6591;51.446;5.404;2022-09-09T04:58:59;17.90;99.90
13049;DHT22;6591;51.446;5.404;2022-09-09T05:01:36;16.70;99.90
13049;DHT22;6591;51.446;5.404;2022-09-09T05:04:04;15.60;99.90
13049;DHT22;6591;51.446;5.404;2022-09-09T05:06:33;15.70;99.90
13049;DHT22;6591;51.446;5.404;2022-09-09T05:09:01;15.60;99.90
13049;DHT22;6591;51.446;5.404;2022-09-09T05:11:31;17.20;99.90
13049;DHT22;6591;51.446;5.404;2022-09-09T05:14:10;15.70;99.90
13049;DHT22;6591;51.446;5.404;2022-09-09T05:16:39;18.00;99.90
13049;DHT22;6591;51.446;5.404;2022-09-09T05:19:06;17.00;99.90
13049;DHT22;6591;51.446;5.404;2022-09-09T05:21:46;18.10;99.90
13049;DHT22;6591;51.446;5.404;2022-09-09T05:24:17;15.70;99.90
13049;DHT22;6591;51.446;5.404;2022-09-09T05:26:45;18.10;99.90
13049;DHT22;6591;51.446;5.404;2022-09-09T05:29:12;15.70;99.90
13049;DHT22;6591;51.446;5.404;2022-09-09T05:31:40;18.20;99.90
13049;DHT22;6591;51.446;5.404;2022-09-09T05:34:11;16.80;99.90
13049;DHT22;6591;51.446;5.404;2022-09-09T05:36:39;15.80;99.90
13049;DHT22;6591;51.446;5.404;2022-09-09T05:39:06;18.00;99.90
13049;DHT22;6591;51.446;5.404;2022-09-09T05:41:33;15.80;99.90
13049;DHT22;6591;51.446;5.404;2022-09-09T05:44:02;18.00;99.90
13049;DHT22;6591;51.446;5.404;2022-09-09T05:46:35;18.60;99.90
13049;DHT22;6591;51.446;5.404;2022-09-09T05:49:02;16.30;99.90
13049;DHT22;6591;51.446;5.404;2022-09-09T05:51:33;16.00;99.90
13049;DHT22;6591;51.446;5.404;2022-09-09T05:54:06;17.50;99.90
13049;DHT22;6591;51.446;5.404;2022-09-09T05:56:37;16.20;99.90
13049;DHT22;6591;51.446;5.404;2022-09-09T05:59:06;13.80;99.90
13049;DHT22;6591;51.446;5.404;2022-09-09T06:01:36;16.90;99.90
13049;DHT22;6591;51.446;5.404;2022-09-09T06:04:09;16.20;99.90
13049;DHT22;6591;51.446;5.404;2022-09-09T06:06:38;16.20;99.90
13049;DHT22;6591;51.446;5.404;2022-09-09T06:09:12;17.10;99.90
13049;DHT22;6591;51.446;5.404;2022-09-09T06:11:42;17.60;99.90
13049;DHT22;6591;51.446;5.404;2022-09-09T06:14:12;16.50;99.90
13049;DHT22;6591;51.446;5.404;2022-09-09T06:16:39;16.60;99.90
13049;DHT22;6591;51.446;5.404;2022-09-09T06:19:17;18.60;99.90
13049;DHT22;6591;51.446;5.404;2022-09-09T06:21:44;16.80;99.90
13049;DHT22;6591;51.446;5.404;2022-09-09T06:24:12;17.80;99.90
13049;DHT22;6591;51.446;5.404;2022-09-09T06:26:41;17.20;99.90
13049;DHT22;6591;51.446;5.404;2022-09-09T06:29:11;14.90;99.90
13049;DHT22;6591;51.446;5.404;2022-09-09T06:31:40;17.30;99.90
13049;DHT22;6591;51.446;5.404;2022-09-09T06:34:14;17.50;99.90
13049;DHT22;6591;51.446;5.404;2022-09-09T06:36:46;17.50;99.90
13049;DHT22;6591;51.446;5.404;2022-09-09T06:40:03;17.50;99.90
13049;DHT22;6591;51.446;5.404;2022-09-09T06:42:30;16.70;99.90
13049;DHT22;6591;51.446;5.404;2022-09-09T06:45:20;18.70;99.90
13049;DHT22;6591;51.446;5.404;2022-09-09T06:47:55;18.70;99.90
13049;DHT22;6591;51.446;5.404;2022-09-09T06:50:23;20.50;99.90
13049;DHT22;6591;51.446;5.404;2022-09-09T06:52:50;17.70;99.90
13049;DHT22;6591;51.446;5.404;2022-09-09T06:55:18;19.70;99.90
13049;DHT22;6591;51.446;5.404;2022-09-09T06:57:45;17.80;99.90
13049;DHT22;6591;51.446;5.404;2022-09-09T07:00:17;18.30;99.90
13049;DHT22;6591;51.446;5.404;2022-09-09T07:02:44;18.00;99.90
13049;DHT22;6591;51.446;5.404;2022-09-09T07:05:12;18.10;99.90
13049;DHT22;6591;51.446;5.404;2022-09-09T07:07:41;18.20;99.90
13049;DHT22;6591;51.446;5.404;2022-09-09T07:10:10;20.00;99.90
13049;DHT22;6591;51.446;5.404;2022-09-09T07:12:39;18.40;99.90
13049;DHT22;6591;51.446;5.404;2022-09-09T07:15:09;18.60;99.90
13049;DHT22;6591;51.446;5.404;2022-09-09T07:17:40;18.70;99.90
13049;DHT22;6591;51.446;5.404;2022-09-09T07:20:07;18.90;99.90
13049;DHT22;6591;51.446;5.404;2022-09-09T07:22:34;19.00;99.90
13049;DHT22;6591;51.446;5.404;2022-09-09T07:25:02;19.10;99.90
13049;DHT22;6591;51.446;5.404;2022-09-09T07:27:34;19.30;99.90
13049;DHT22;6591;51.446;5.404;2022-09-09T07:30:01;18.30;99.90
13049;DHT22;6591;51.446;5.404;2022-09-09T07:32:31;19.50;99.90
13049;DHT22;6591;51.446;5.404;2022-09-09T07:35:01;19.60;99.90
13049;DHT22;6591;51.446;5.404;2022-09-09T07:37:32;19.70;99.90
13049;DHT22;6591;51.446;5.404;2022-09-09T07:40:03;19.70;99.90
13049;DHT22;6591;51.446;5.404;2022-09-09T07:42:32;19.80;99.90
13049;DHT22;6591;51.446;5.404;2022-09-09T07:45:00;19.80;99.90
13049;DHT22;6591;51.446;5.404;2022-09-09T07:47:28;19.90;99.90
13049;DHT22;6591;51.446;5.404;2022-09-09T07:49:55;20.00;99.90
13049;DHT22;6591;51.446;5.404;2022-09-09T07:52:28;20.00;99.90
13049;DHT22;6591;51.446;5.404;2022-09-09T07:54:59;20.00;99.90
13049;DHT22;6591;51.446;5.404;2022-09-09T07:57:30;20.00;99.90
13049;DHT22;6591;51.446;5.404;2022-09-09T07:59:57;20.10;99.90
13049;DHT22;6591;51.446;5.404;2022-09-09T08:02:25;20.20;99.90
13049;DHT22;6591;51.446;5.404;2022-09-09T08:04:55;20.30;99.90
13049;DHT22;6591;51.446;5.404;2022-09-09T08:07:23;20.40;99.90
13049;DHT22;6591;51.446;5.404;2022-09-09T08:09:53;22.50;99.90
13049;DHT22;6591;51.446;5.404;2022-09-09T08:12:26;20.70;99.90
13049;DHT22;6591;51.446;5.404;2022-09-09T08:14:55;22.90;99.90
13049;DHT22;6591;51.446;5.404;2022-09-09T08:17:25;20.90;99.90
13049;DHT22;6591;51.446;5.404;2022-09-09T08:19:52;21.00;99.90
13049;DHT22;6591;51.446;5.404;2022-09-09T08:22:24;21.00;99.90
13049;DHT22;6591;51.446;5.404;2022-09-09T08:24:51;21.10;99.90
13049;DHT22;6591;51.446;5.404;2022-09-09T08:27:18;21.60;99.90
13049;DHT22;6591;51.446;5.404;2022-09-09T08:29:46;21.20;99.90
13049;DHT22;6591;51.446;5.404;2022-09-09T08:32:13;21.10;99.90
13049;DHT22;6591;51.446;5.404;2022-09-09T08:34:41;22.10;99.90
13049;DHT22;6591;51.446;5.404;2022-09-09T08:37:18;21.40;99.90
13049;DHT22;6591;51.446;5.404;2022-09-09T08:39:47;21.50;99.90
13049;DHT22;6591;51.446;5.404;2022-09-09T08:42:40;21.80;99.90
13049;DHT22;6591;51.446;5.404;2022-09-09T08:45:55;21.50;99.90
13049;DHT22;6591;51.446;5.404;2022-09-09T08:48:35;21.40;99.90
13049;DHT22;6591;51.446;5.404;2022-09-09T08:51:11;21.40;99.90
13049;DHT22;6591;51.446;5.404;2022-09-09T08:53:46;21.40;99.90
13049;DHT22;6591;51.446;5.404;2022-09-09T08:56:20;22.00;99.90
13049;DHT22;6591;51.446;5.404;2022-09-09T08:58:54;21.40;99.90
13049;DHT22;6591;51.446;5.404;2022-09-09T09:01:41;23.20;99.90
13049;DHT22;6591;51.446;5.404;2022-09-09T09:04:56;21.40;99.90
13049;DHT22;6591;51.446;5.404;2022-09-09T09:10:53;21.40;99.90
13049;DHT22;6591;51.446;5.404;2022-09-09T09:16:34;21.40;99.90
13049;DHT22;6591;51.446;5.404;2022-09-09T09:19:13;21.60;99.90
13049;DHT22;6591;51.446;5.404;2022-09-09T09:25:18;21.40;99.90
13049;DHT22;6591;51.446;5.404;2022-09-09T09:28:17;21.30;99.90
13049;DHT22;6591;51.446;5.404;2022-09-09T09:31:09;21.30;99.90
13049;DHT22;6591;51.446;5.404;2022-09-09T09:36:41;21.40;99.90
13049;DHT22;6591;51.446;5.404;2022-09-09T09:42:12;21.70;99.90
13049;DHT22;6591;51.446;5.404;2022-09-09T09:44:46;21.80;99.90
13049;DHT22;6591;51.446;5.404;2022-09-09T09:47:22;21.90;99.90
13049;DHT22;6591;51.446;5.404;2022-09-09T09:50:19;22.00;99.90
13049;DHT22;6591;51.446;5.404;2022-09-09T09:52:58;22.00;99.90
13049;DHT22;6591;51.446;5.404;2022-09-09T09:55:30;23.20;99.90
13049;DHT22;6591;51.446;5.404;2022-09-09T09:58:04;22.00;99.90
13049;DHT22;6591;51.446;5.404;2022-09-09T10:00:34;21.90;99.90
13049;DHT22;6591;51.446;5.404;2022-09-09T10:03:29;21.80;99.90
13049;DHT22;6591;51.446;5.404;2022-09-09T10:06:00;21.70;99.90
13049;DHT22;6591;51.446;5.404;2022-09-09T10:08:28;21.50;99.90
13049;DHT22;6591;51.446;5.404;2022-09-09T10:11:12;21.30;99.90
13049;DHT22;6591;51.446;5.404;2022-09-09T10:14:33;21.30;99.90
13049;DHT22;6591;51.446;5.404;2022-09-09T10:17:32;21.10;99.90
13049;DHT22;6591;51.446;5.404;2022-09-09T10:20:13;21.00;99.90
13049;DHT22;6591;51.446;5.404;2022-09-09T10:23:15;20.90;99.90
13049;DHT22;6591;51.446;5.404;2022-09-09T10:26:26;20.80;99.90
13049;DHT22;6591;51.446;5.404;2022-09-09T10:35:33;21.00;99.90
13049;DHT22;6591;51.446;5.404;2022-09-09T10:50:02;20.20;99.90
13049;DHT22;6591;51.446;5.404;2022-09-09T10:55:43;20.40;99.90
13049;DHT22;6591;51.446;5.404;2022-09-09T10:58:25;20.60;99.90
13049;DHT22;6591;51.446;5.404;2022-09-09T11:01:17;20.80;99.90
13049;DHT22;6591;51.446;5.404;2022-09-09T11:03:57;20.90;99.90
13049;DHT22;6591;51.446;5.404;2022-09-09T11:06:38;21.70;99.90
13049;DHT22;6591;51.446;5.404;2022-09-09T11:09:15;21.00;99.90
13049;DHT22;6591;51.446;5.404;2022-09-09T11:11:56;21.10;99.90
13049;DHT22;6591;51.446;5.404;2022-09-09T11:14:45;21.20;99.90
13049;DHT22;6591;51.446;5.404;2022-09-09T11:17:30;21.30;99.90
13049;DHT22;6591;51.446;5.404;2022-09-09T11:20:05;21.40;99.90
13049;DHT22;6591;51.446;5.404;2022-09-09T11:22:42;21.60;99.90
13049;DHT22;6591;51.446;5.404;2022-09-09T11:25:29;22.00;99.90
13049;DHT22;6591;51.446;5.404;2022-09-09T11:33:46;21.90;99.90
13049;DHT22;6591;51.446;5.404;2022-09-09T11:42:44;22.10;99.90
13049;DHT22;6591;51.446;5.404;2022-09-09T11:45:25;22.10;99.90
13049;DHT22;6591;51.446;5.404;2022-09-09T11:47:57;21.90;99.90
13049;DHT22;6591;51.446;5.404;2022-09-09T11:50:27;21.80;99.90
13049;DHT22;6591;51.446;5.404;2022-09-09T11:53:17;21.70;99.90
13049;DHT22;6591;51.446;5.404;2022-09-09T11:55:59;22.60;99.90
13049;DHT22;6591;51.446;5.404;2022-09-09T11:58:43;21.40;99.90
13049;DHT22;6591;51.446;5.404;2022-09-09T12:01:33;21.20;99.90
13049;DHT22;6591;51.446;5.404;2022-09-09T12:09:20;22.10;99.90
13049;DHT22;6591;51.446;5.404;2022-09-09T12:11:52;22.20;99.90
13049;DHT22;6591;51.446;5.404;2022-09-09T12:14:34;21.40;99.90
13049;DHT22;6591;51.446;5.404;2022-09-09T12:19:43;21.70;99.90
13049;DHT22;6591;51.446;5.404;2022-09-09T12:22:27;21.90;99.90
13049;DHT22;6591;51.446;5.404;2022-09-09T12:31:10;22.30;99.90
13049;DHT22;6591;51.446;5.404;2022-09-09T12:37:13;22.40;99.90
13049;DHT22;6591;51.446;5.404;2022-09-09T12:40:24;22.50;99.90
13049;DHT22;6591;51.446;5.404;2022-09-09T12:42:47;22.40;99.90
13049;DHT22;6591;51.446;5.404;2022-09-09T12:45:22;22.40;99.90
13049;DHT22;6591;51.446;5.404;2022-09-09T12:48:08;22.30;99.90
13049;DHT22;6591;51.446;5.404;2022-09-09T12:50:46;22.20;99.90
13049;DHT22;6591;51.446;5.404;2022-09-09T12:53:36;22.90;99.90
13049;DHT22;6591;51.446;5.404;2022-09-09T12:56:18;22.10;99.90
13049;DHT22;6591;51.446;5.404;2022-09-09T12:58:49;22.00;99.90
13049;DHT22;6591;51.446;5.404;2022-09-09T13:03:55;22.10;99.90
13049;DHT22;6591;51.446;5.404;2022-09-09T13:06:30;22.20;99.90
13049;DHT22;6591;51.446;5.404;2022-09-09T13:09:00;22.30;99.90
13049;DHT22;6591;51.446;5.404;2022-09-09T13:11:30;24.50;99.90
13049;DHT22;6591;51.446;5.404;2022-09-09T13:14:03;22.70;99.90
13049;DHT22;6591;51.446;5.404;2022-09-09T13:16:35;23.00;99.90
13049;DHT22;6591;51.446;5.404;2022-09-09T13:19:13;23.20;99.90
13049;DHT22;6591;51.446;5.404;2022-09-09T13:21:42;23.30;99.90
13049;DHT22;6591;51.446;5.404;2022-09-09T13:24:39;23.50;99.90
13049;DHT22;6591;51.446;5.404;2022-09-09T13:27:29;23.60;99.90
13049;DHT22;6591;51.446;5.404;2022-09-09T13:30:01;23.60;99.90
13049;DHT22;6591;51.446;5.404;2022-09-09T13:32:28;23.70;99.90
13049;DHT22;6591;51.446;5.404;2022-09-09T13:34:58;23.70;99.90
13049;DHT22;6591;51.446;5.404;2022-09-09T13:37:37;24.80;99.90
13049;DHT22;6591;51.446;5.404;2022-09-09T13:40:18;22.00;99.90
13049;DHT22;6591;51.446;5.404;2022-09-09T13:42:52;23.40;99.90
13049;DHT22;6591;51.446;5.404;2022-09-09T13:45:25;24.30;99.90
13049;DHT22;6591;51.446;5.404;2022-09-09T13:47:54;23.00;99.90
13049;DHT22;6591;51.446;5.404;2022-09-09T13:50:24;22.90;99.90
13049;DHT22;6591;51.446;5.404;2022-09-09T13:52:58;22.90;99.90
13049;DHT22;6591;51.446;5.404;2022-09-09T13:55:27;23.00;99.90
13049;DHT22;6591;51.446;5.404;2022-09-09T13:58:01;23.10;99.90
13049;DHT22;6591;51.446;5.404;2022-09-09T14:00:33;23.40;99.90
13049;DHT22;6591;51.446;5.404;2022-09-09T14:03:00;23.50;99.90
13049;DHT22;6591;51.446;5.404;2022-09-09T14:05:33;23.60;99.90
13049;DHT22;6591;51.446;5.404;2022-09-09T14:08:01;23.70;99.90
13049;DHT22;6591;51.446;5.404;2022-09-09T14:10:30;23.70;99.90
13049;DHT22;6591;51.446;5.404;2022-09-09T14:13:00;23.60;99.90
13049;DHT22;6591;51.446;5.404;2022-09-09T14:15:27;23.40;99.90
13049;DHT22;6591;51.446;5.404;2022-09-09T14:17:55;23.30;99.90
13049;DHT22;6591;51.446;5.404;2022-09-09T14:20:22;23.40;99.90
13049;DHT22;6591;51.446;5.404;2022-09-09T14:22:49;22.90;99.90
13049;DHT22;6591;51.446;5.404;2022-09-09T14:25:16;22.70;99.90
13049;DHT22;6591;51.446;5.404;2022-09-09T14:27:43;22.60;99.90
13049;DHT22;6591;51.446;5.404;2022-09-09T14:30:12;24.40;99.90
13049;DHT22;6591;51.446;5.404;2022-09-09T14:32:39;22.80;99.90
13049;DHT22;6591;51.446;5.404;2022-09-09T14:35:06;23.00;99.90
13049;DHT22;6591;51.446;5.404;2022-09-09T14:37:33;23.30;99.90
13049;DHT22;6591;51.446;5.404;2022-09-09T14:40:01;23.60;99.90
13049;DHT22;6591;51.446;5.404;2022-09-09T14:42:28;23.80;99.90
13049;DHT22;6591;51.446;5.404;2022-09-09T14:44:56;24.20;99.90
13049;DHT22;6591;51.446;5.404;2022-09-09T14:47:23;24.00;99.90
13049;DHT22;6591;51.446;5.404;2022-09-09T14:49:50;24.20;99.90
13049;DHT22;6591;51.446;5.404;2022-09-09T14:52:18;24.30;99.90
13049;DHT22;6591;51.446;5.404;2022-09-09T14:54:45;24.50;99.90
13049;DHT22;6591;51.446;5.404;2022-09-09T14:57:12;24.60;99.90
13049;DHT22;6591;51.446;5.404;2022-09-09T14:59:39;24.80;99.90
13049;DHT22;6591;51.446;5.404;2022-09-09T15:02:10;26.60;99.90
13049;DHT22;6591;51.446;5.404;2022-09-09T15:04:38;26.90;99.90
13049;DHT22;6591;51.446;5.404;2022-09-09T15:07:05;25.00;99.90
13049;DHT22;6591;51.446;5.404;2022-09-09T15:09:31;25.10;99.90
13049;DHT22;6591;51.446;5.404;2022-09-09T15:11:59;25.20;99.90
13049;DHT22;6591;51.446;5.404;2022-09-09T15:14:27;24.60;99.90
13049;DHT22;6591;51.446;5.404;2022-09-09T15:16:54;25.50;99.90
13049;DHT22;6591;51.446;5.404;2022-09-09T15:19:21;25.60;99.90
13049;DHT22;6591;51.446;5.404;2022-09-09T15:21:48;25.70;99.90
13049;DHT22;6591;51.446;5.404;2022-09-09T15:24:15;26.60;99.90
13049;DHT22;6591;51.446;5.404;2022-09-09T15:26:43;26.00;99.20
13049;DHT22;6591;51.446;5.404;2022-09-09T15:29:10;27.00;99.20
13049;DHT22;6591;51.446;5.404;2022-09-09T15:31:37;25.90;98.00
13049;DHT22;6591;51.446;5.404;2022-09-09T15:34:06;25.70;97.50
13049;DHT22;6591;51.446;5.404;2022-09-09T15:36:36;25.60;97.20
13049;DHT22;6591;51.446;5.404;2022-09-09T15:39:09;25.20;95.00
13049;DHT22;6591;51.446;5.404;2022-09-09T15:41:46;25.00;95.10
13049;DHT22;6591;51.446;5.404;2022-09-09T15:44:15;24.80;94.90
13049;DHT22;6591;51.446;5.404;2022-09-09T15:46:49;24.30;94.90
13049;DHT22;6591;51.446;5.404;2022-09-09T15:49:19;23.80;94.90
13049;DHT22;6591;51.446;5.404;2022-09-09T15:51:53;23.50;95.60
13049;DHT22;6591;51.446;5.404;2022-09-09T15:54:25;21.30;95.30
13049;DHT22;6591;51.446;5.404;2022-09-09T15:56:56;22.90;95.80
13049;DHT22;6591;51.446;5.404;2022-09-09T15:59:27;22.70;96.40
13049;DHT22;6591;51.446;5.404;2022-09-09T16:01:56;23.40;97.00
13049;DHT22;6591;51.446;5.404;2022-09-09T16:04:26;22.20;97.10
13049;DHT22;6591;51.446;5.404;2022-09-09T16:06:58;22.10;97.20
13049;DHT22;6591;51.446;5.404;2022-09-09T16:09:28;23.00;97.90
13049;DHT22;6591;51.446;5.404;2022-09-09T16:11:57;21.70;97.80
13049;DHT22;6591;51.446;5.404;2022-09-09T16:14:28;23.60;98.80
13049;DHT22;6591;51.446;5.404;2022-09-09T16:16:55;21.50;98.50
13049;DHT22;6591;51.446;5.404;2022-09-09T16:19:23;22.30;98.80
13049;DHT22;6591;51.446;5.404;2022-09-09T16:21:50;21.30;98.70
13049;DHT22;6591;51.446;5.404;2022-09-09T16:24:19;21.10;98.70
13049;DHT22;6591;51.446;5.404;2022-09-09T16:26:48;21.00;98.90
13049;DHT22;6591;51.446;5.404;2022-09-09T16:29:18;20.80;99.10
13049;DHT22;6591;51.446;5.404;2022-09-09T16:31:49;23.10;99.90
13049;DHT22;6591;51.446;5.404;2022-09-09T16:34:17;20.40;99.90
13049;DHT22;6591;51.446;5.404;2022-09-09T16:36:45;22.30;99.90
13049;DHT22;6591;51.446;5.404;2022-09-09T16:39:17;20.00;99.90
13049;DHT22;6591;51.446;5.404;2022-09-09T16:41:47;19.70;99.90
13049;DHT22;6591;51.446;5.404;2022-09-09T16:44:16;19.50;99.90
13049;DHT22;6591;51.446;5.404;2022-09-09T16:46:46;19.80;99.90
13049;DHT22;6591;51.446;5.404;2022-09-09T16:49:26;20.20;99.90
13049;DHT22;6591;51.446;5.404;2022-09-09T16:51:58;18.70;99.90
13049;DHT22;6591;51.446;5.404;2022-09-09T16:54:28;18.40;99.90
13049;DHT22;6591;51.446;5.404;2022-09-09T16:56:56;18.30;99.90
13049;DHT22;6591;51.446;5.404;2022-09-09T16:59:26;18.20;99.90
13049;DHT22;6591;51.446;5.404;2022-09-09T17:01:53;18.90;99.90
13049;DHT22;6591;51.446;5.404;2022-09-09T17:04:27;20.40;99.90
13049;DHT22;6591;51.446;5.404;2022-09-09T17:07:11;19.10;99.90
13049;DHT22;6591;51.446;5.404;2022-09-09T17:09:47;17.80;99.90
13049;DHT22;6591;51.446;5.404;2022-09-09T17:12:14;19.80;99.90
13049;DHT22;6591;51.446;5.404;2022-09-09T17:14:43;18.20;99.90
13049;DHT22;6591;51.446;5.404;2022-09-09T17:17:12;15.40;99.90
13049;DHT22;6591;51.446;5.404;2022-09-09T17:19:57;17.60;99.90
13049;DHT22;6591;51.446;5.404;2022-09-09T17:22:27;17.50;99.90
13049;DHT22;6591;51.446;5.404;2022-09-09T17:24:55;17.50;99.90
13049;DHT22;6591;51.446;5.404;2022-09-09T17:27:22;18.20;99.90
13049;DHT22;6591;51.446;5.404;2022-09-09T17:29:49;19.30;99.90
13049;DHT22;6591;51.446;5.404;2022-09-09T17:32:15;17.60;99.90
13049;DHT22;6591;51.446;5.404;2022-09-09T17:34:42;17.70;99.90
13049;DHT22;6591;51.446;5.404;2022-09-09T17:37:09;17.80;99.90
13049;DHT22;6591;51.446;5.404;2022-09-09T17:39:36;19.00;99.90
13049;DHT22;6591;51.446;5.404;2022-09-09T17:42:03;20.00;99.90
13049;DHT22;6591;51.446;5.404;2022-09-09T17:44:31;17.90;99.90
13049;DHT22;6591;51.446;5.404;2022-09-09T17:46:59;16.80;99.90
13049;DHT22;6591;51.446;5.404;2022-09-09T17:49:26;17.90;99.90
13049;DHT22;6591;51.446;5.404;2022-09-09T17:51:53;18.00;99.90
13049;DHT22;6591;51.446;5.404;2022-09-09T17:54:21;18.00;99.90
13049;DHT22;6591;51.446;5.404;2022-09-09T17:56:48;18.20;99.90
13049;DHT22;6591;51.446;5.404;2022-09-09T17:59:17;18.50;99.90
13049;DHT22;6591;51.446;5.404;2022-09-09T18:01:46;18.10;99.90